createdAt,value
2019-04-21T00:00:14.509Z,27.77
2019-04-21T00:02:44.105Z,26.43
2019-04-21T00:05:43.147Z,26.49
2019-04-21T00:08:10.763Z,26.41
2019-04-21T00:10:37.468Z,26.23
2019-04-21T00:13:00.395Z,26.25
2019-04-21T00:15:24.616Z,26.21
2019-04-21T00:17:53.910Z,26.27
2019-04-21T00:20:30.939Z,26.40
2019-04-21T00:23:10.633Z,26.64
2019-04-21T00:25:34.844Z,26.40
2019-04-21T00:28:17.343Z,26.47
2019-04-21T00:30:44.324Z,26.57
2019-04-21T00:33:05.347Z,26.87
2019-04-21T00:35:29.356Z,26.79
2019-04-21T00:38:22.745Z,26.90
2019-04-21T00:40:53.851Z,27.20
2019-04-21T00:43:18.127Z,29.74
2019-04-21T00:45:42.222Z,31.49
2019-04-21T00:48:25.770Z,32.03
2019-04-21T00:51:11.046Z,32.57
2019-04-21T00:53:37.063Z,32.45
2019-04-21T00:56:08.954Z,32.23
2019-04-21T00:58:39.312Z,33.57
2019-04-21T01:01:04.475Z,33.06
2019-04-21T01:03:40.146Z,33.36
2019-04-21T01:06:11.426Z,33.22
2019-04-21T01:08:39.972Z,33.94
2019-04-21T01:11:02.198Z,33.13
2019-04-21T01:13:49.766Z,33.05
2019-04-21T01:16:17.432Z,32.37
2019-04-21T01:18:42.628Z,32.76
2019-04-21T01:20:52.605Z,32.25
2019-04-21T01:23:23.305Z,32.07
2019-04-21T01:26:06.334Z,32.25
2019-04-21T01:28:41.299Z,32.09
2019-04-21T01:31:15.369Z,32.17
2019-04-21T01:33:50.733Z,32.36
2019-04-21T01:36:14.523Z,32.48
2019-04-21T01:39:05.512Z,32.53
2019-04-21T01:43:53.447Z,32.45
2019-04-21T01:46:19.447Z,32.30
2019-04-21T01:48:49.454Z,32.50
2019-04-21T01:51:23.504Z,31.96
2019-04-21T01:54:18.504Z,32.47
2019-04-21T01:57:01.978Z,32.36
2019-04-21T01:59:30.603Z,32.65
2019-04-21T02:02:05.149Z,32.39
2019-04-21T02:04:41.741Z,31.97
2019-04-21T02:07:13.081Z,32.11
2019-04-21T02:10:03.467Z,32.45
2019-04-21T02:12:13.509Z,32.45
2019-04-21T02:14:50.527Z,32.39
2019-04-21T02:17:14.722Z,32.05
2019-04-21T02:19:39.613Z,32.63
2019-04-21T02:22:10.862Z,33.20
2019-04-21T02:24:49.692Z,33.93
2019-04-21T02:27:21.811Z,34.78
2019-04-21T02:29:51.858Z,35.11
2019-04-21T02:35:24.867Z,35.84
2019-04-21T02:40:08.434Z,36.07
2019-04-21T02:42:37.903Z,35.87
2019-04-21T02:50:09.924Z,34.42
2019-04-21T02:52:45.019Z,34.64
2019-04-21T02:57:41.380Z,34.39
2019-04-21T03:00:13.626Z,35.20
2019-04-21T03:02:58.649Z,35.92
2019-04-21T03:05:58.297Z,35.27
2019-04-21T03:10:57.191Z,35.58
2019-04-21T03:13:21.892Z,35.94
2019-04-21T03:18:29.085Z,36.78
2019-04-21T03:21:03.127Z,37.37
2019-04-21T03:25:56.167Z,36.54
2019-04-21T03:28:30.147Z,36.96
2019-04-21T03:36:37.244Z,38.36
2019-04-21T03:38:37.686Z,38.44
2019-04-21T03:40:57.750Z,38.41
2019-04-21T03:45:58.270Z,37.71
2019-04-21T03:51:04.839Z,36.97
2019-04-21T03:53:31.998Z,37.33
2019-04-21T03:56:02.748Z,36.69
2019-04-21T03:58:47.025Z,36.43
2019-04-21T04:01:16.720Z,36.00
2019-04-21T04:07:25.049Z,35.82
2019-04-21T04:12:05.242Z,35.97
2019-04-21T04:19:45.429Z,36.13
2019-04-21T04:22:31.464Z,37.28
2019-04-21T04:24:49.954Z,36.68
2019-04-21T04:27:33.672Z,36.92
2019-04-21T04:40:32.475Z,38.02
2019-04-21T04:43:09.839Z,38.14
2019-04-21T04:48:09.200Z,38.56
2019-04-21T04:50:45.485Z,38.04
2019-04-21T04:55:41.099Z,38.33
2019-04-21T04:58:07.136Z,38.01
2019-04-21T05:03:11.757Z,38.67
2019-04-21T05:06:38.306Z,38.38
2019-04-21T05:11:30.736Z,38.32
2019-04-21T05:13:55.386Z,38.15
2019-04-21T05:16:38.445Z,38.28
2019-04-21T05:21:30.197Z,38.08
2019-04-21T05:23:44.084Z,37.94
2019-04-21T05:26:09.981Z,37.62
2019-04-21T05:28:41.928Z,37.54
2019-04-21T05:31:45.002Z,37.30
2019-04-21T05:34:09.482Z,37.71
2019-04-21T05:37:04.055Z,37.33
2019-04-21T05:39:37.765Z,37.36
2019-04-21T05:42:02.644Z,37.23
2019-04-21T05:44:58.200Z,37.27
2019-04-21T05:47:29.895Z,36.83
2019-04-21T05:49:57.194Z,36.42
2019-04-21T05:52:26.569Z,36.49
2019-04-21T05:55:01.169Z,36.55
2019-04-21T05:57:33.549Z,36.20
2019-04-21T06:00:04.291Z,36.11
2019-04-21T06:02:35.441Z,36.58
2019-04-21T06:07:41.065Z,35.70
2019-04-21T06:10:05.466Z,35.67
2019-04-21T06:12:44.975Z,35.85
2019-04-21T06:15:15.327Z,36.14
2019-04-21T06:17:43.964Z,36.30
2019-04-21T06:20:17.149Z,36.38
2019-04-21T06:22:46.757Z,36.43
2019-04-21T06:25:43.110Z,36.33
2019-04-21T06:27:45.813Z,36.30
2019-04-21T06:30:19.335Z,36.32
2019-04-21T06:32:49.054Z,36.25
2019-04-21T06:35:48.941Z,36.03
2019-04-21T06:38:13.130Z,35.77
2019-04-21T06:40:42.275Z,35.54
2019-04-21T06:45:50.056Z,35.32
2019-04-21T06:48:20.765Z,35.02
2019-04-21T06:50:46.102Z,34.80
2019-04-21T06:53:23.766Z,34.45
2019-04-21T06:55:46.761Z,33.81
2019-04-21T06:58:18.146Z,33.20
2019-04-21T07:00:45.297Z,32.97
2019-04-21T07:03:22.971Z,32.29
2019-04-21T07:06:00.292Z,32.21
2019-04-21T07:08:30.810Z,31.93
2019-04-21T07:10:53.339Z,31.58
2019-04-21T07:13:22.249Z,31.69
2019-04-21T07:16:00.586Z,31.12
2019-04-21T07:18:27.299Z,31.12
2019-04-21T07:20:53.512Z,31.40
2019-04-21T07:23:30.293Z,31.67
2019-04-21T07:25:58.152Z,31.91
2019-04-21T07:28:32.048Z,31.67
2019-04-21T07:31:04.993Z,31.47
2019-04-21T07:33:50.878Z,31.04
2019-04-21T07:36:06.514Z,30.84
2019-04-21T07:38:33.184Z,30.90
2019-04-21T07:40:57.920Z,30.93
2019-04-21T07:43:31.530Z,30.98
2019-04-21T07:45:58.598Z,31.25
2019-04-21T07:48:43.246Z,30.76
2019-04-21T07:51:33.949Z,30.76
2019-04-21T07:54:13.836Z,30.72
2019-04-21T07:56:19.923Z,30.62
2019-04-21T07:59:02.078Z,30.43
2019-04-21T08:01:37.343Z,30.58
2019-04-21T08:04:14.675Z,30.73
2019-04-21T08:09:08.974Z,30.46
2019-04-21T08:11:36.670Z,31.01
2019-04-21T08:14:08.175Z,29.88
2019-04-21T08:16:49.763Z,29.92
2019-04-21T08:19:13.315Z,31.05
2019-04-21T08:21:46.234Z,30.00
2019-04-21T08:24:14.941Z,30.17
2019-04-21T08:26:45.165Z,28.22
2019-04-21T08:34:22.599Z,28.50
2019-04-21T08:36:46.494Z,28.04
2019-04-21T08:39:26.824Z,27.78
2019-04-21T08:41:49.672Z,27.81
2019-04-21T08:44:26.230Z,27.99
2019-04-21T08:46:55.383Z,27.64
2019-04-21T08:49:22.291Z,27.62
2019-04-21T08:52:00.740Z,27.44
2019-04-21T08:54:26.525Z,27.46
2019-04-21T08:57:14.639Z,27.32
2019-04-21T09:00:12.549Z,27.14
2019-04-21T09:02:58.873Z,27.20
2019-04-21T09:05:23.522Z,27.56
2019-04-21T09:08:02.146Z,27.25
2019-04-21T09:10:31.736Z,27.19
2019-04-21T09:12:53.487Z,26.71
2019-04-21T09:15:31.380Z,26.63
2019-04-21T09:17:53.389Z,26.27
2019-04-21T09:20:32.722Z,25.79
2019-04-21T09:23:00.734Z,26.46
2019-04-21T09:25:44.682Z,25.50
2019-04-21T09:28:03.957Z,24.70
2019-04-21T09:30:17.541Z,23.65
2019-04-21T09:32:49.469Z,21.98
2019-04-21T09:35:20.056Z,21.88
2019-04-21T09:37:56.471Z,22.18
2019-04-21T09:40:27.354Z,20.82
2019-04-21T09:42:58.647Z,20.23
2019-04-21T09:45:23.025Z,20.11
2019-04-21T09:48:00.852Z,19.09
2019-04-21T09:50:24.343Z,19.67
2019-04-21T09:52:59.700Z,19.34
2019-04-21T09:55:31.495Z,18.89
2019-04-21T09:58:07.503Z,19.37
2019-04-21T10:00:31.247Z,18.99
2019-04-21T10:03:06.069Z,18.95
2019-04-21T10:05:29.980Z,20.62
2019-04-21T10:07:59.792Z,20.88
2019-04-21T10:10:31.829Z,20.89
2019-04-21T10:13:02.757Z,20.43
2019-04-21T10:15:33.247Z,20.43
2019-04-21T10:18:06.373Z,20.07
2019-04-21T10:20:36.350Z,20.06
2019-04-21T10:23:07.068Z,19.63
2019-04-21T10:25:36.784Z,19.28
2019-04-21T10:28:07.380Z,19.18
2019-04-21T10:30:36.697Z,19.44
2019-04-21T10:33:06.181Z,19.42
2019-04-21T10:35:37.015Z,19.45
2019-04-21T10:38:16.989Z,19.52
2019-04-21T10:40:37.524Z,19.53
2019-04-21T10:43:10.078Z,19.27
2019-04-21T10:45:39.021Z,19.17
2019-04-21T10:48:08.441Z,19.05
2019-04-21T10:50:38.873Z,19.25
2019-04-21T10:53:13.391Z,19.49
2019-04-21T10:55:57.876Z,19.29
2019-04-21T10:58:22.958Z,19.24
2019-04-21T11:01:00.053Z,19.41
2019-04-21T11:03:36.980Z,19.19
2019-04-21T11:06:08.626Z,19.27
2019-04-21T11:08:43.355Z,19.35
2019-04-21T11:11:10.014Z,19.31
2019-04-21T11:13:40.815Z,19.02
2019-04-21T11:16:11.032Z,18.85
2019-04-21T11:18:41.961Z,18.82
2019-04-21T11:21:11.641Z,18.70
2019-04-21T11:23:40.823Z,18.68
2019-04-21T11:26:10.095Z,18.92
2019-04-21T11:28:39.272Z,18.94
2019-04-21T11:31:09.100Z,18.89
2019-04-21T11:33:39.568Z,18.73
2019-04-21T11:36:09.318Z,18.69
2019-04-21T11:39:06.079Z,18.90
2019-04-21T11:41:23.926Z,19.10
2019-04-21T11:43:53.217Z,19.18
2019-04-21T11:46:22.663Z,19.08
2019-04-21T11:48:52.499Z,18.64
2019-04-21T11:51:22.773Z,18.66
2019-04-21T11:53:52.866Z,18.48
2019-04-21T11:56:23.052Z,18.40
2019-04-21T11:58:52.434Z,18.19
2019-04-21T12:01:21.592Z,18.40
2019-04-21T12:03:51.736Z,18.29
2019-04-21T12:06:30.878Z,18.17
2019-04-21T12:08:54.482Z,18.34
2019-04-21T12:11:23.273Z,18.48
2019-04-21T12:13:52.485Z,18.52
2019-04-21T12:16:23.246Z,18.48
2019-04-21T12:18:52.598Z,18.62
2019-04-21T12:21:23.308Z,18.65
2019-04-21T12:23:52.760Z,18.11
2019-04-21T12:26:22.173Z,17.90
2019-04-21T12:28:53.434Z,18.04
2019-04-21T12:31:51.695Z,18.58
2019-04-21T12:34:21.866Z,18.38
2019-04-21T12:36:52.720Z,18.31
2019-04-21T12:39:23.023Z,18.26
2019-04-21T12:41:52.257Z,18.50
2019-04-21T12:44:22.578Z,18.25
2019-04-21T12:46:51.985Z,18.17
2019-04-21T12:49:22.098Z,18.38
2019-04-21T12:51:51.591Z,17.98
2019-04-21T12:54:21.657Z,19.69
2019-04-21T12:56:51.725Z,24.26
2019-04-21T12:59:21.351Z,18.04
2019-04-21T13:04:26.018Z,17.59
2019-04-21T13:06:55.306Z,17.92
2019-04-21T13:09:27.501Z,18.19
2019-04-21T13:11:56.967Z,17.89
2019-04-21T13:14:26.407Z,17.71
2019-04-21T13:16:57.332Z,17.81
2019-04-21T13:19:27.325Z,17.89
2019-04-21T13:21:58.177Z,17.83
2019-04-21T13:24:27.484Z,17.59
2019-04-21T13:26:59.791Z,17.12
2019-04-21T13:29:28.221Z,17.60
2019-04-21T13:31:58.415Z,18.13
2019-04-21T13:34:28.332Z,18.27
2019-04-21T13:36:59.257Z,18.21
2019-04-21T13:40:18.207Z,18.33
2019-04-21T13:42:34.282Z,18.12
2019-04-21T13:44:57.929Z,17.87
2019-04-21T13:47:28.238Z,17.82
2019-04-21T13:49:59.889Z,17.44
2019-04-21T13:52:29.051Z,17.50
2019-04-21T13:54:58.617Z,17.34
2019-04-21T13:57:28.518Z,17.09
2019-04-21T13:59:59.230Z,17.02
2019-04-21T14:02:29.020Z,17.27
2019-04-21T14:04:59.171Z,17.19
2019-04-21T14:07:28.422Z,16.89
2019-04-21T14:10:03.369Z,16.78
2019-04-21T14:12:29.656Z,16.85
2019-04-21T14:15:00.106Z,17.16
2019-04-21T14:17:30.856Z,16.47
2019-04-21T14:20:01.441Z,16.76
2019-04-21T14:22:31.794Z,16.58
2019-04-21T14:25:01.817Z,16.51
2019-04-21T14:27:32.184Z,16.51
2019-04-21T14:30:02.898Z,16.46
2019-04-21T14:32:32.199Z,16.40
2019-04-21T14:35:02.973Z,16.64
2019-04-21T14:37:32.887Z,16.17
2019-04-21T14:40:07.408Z,16.34
2019-04-21T14:42:34.014Z,16.08
2019-04-21T14:45:03.284Z,17.03
2019-04-21T14:48:00.930Z,16.77
2019-04-21T14:51:07.320Z,16.67
2019-04-21T14:53:46.177Z,16.72
2019-04-21T14:56:15.450Z,16.44
2019-04-21T14:58:45.303Z,16.23
2019-04-21T15:01:15.740Z,16.34
2019-04-21T15:03:45.687Z,16.02
2019-04-21T15:06:15.719Z,15.80
2019-04-21T15:08:45.063Z,15.65
2019-04-21T15:11:14.248Z,15.44
2019-04-21T15:13:43.976Z,15.51
2019-04-21T15:16:13.176Z,15.49
2019-04-21T15:18:42.650Z,15.06
2019-04-21T15:21:13.120Z,14.91
2019-04-21T15:23:42.771Z,14.41
2019-04-21T15:26:12.377Z,14.57
2019-04-21T15:28:42.496Z,14.41
2019-04-21T15:31:19.647Z,14.26
2019-04-21T15:33:43.210Z,14.15
2019-04-21T15:36:13.369Z,13.68
2019-04-21T15:38:43.674Z,13.45
2019-04-21T15:41:14.372Z,13.31
2019-04-21T15:43:44.752Z,12.81
2019-04-21T15:46:15.059Z,12.51
2019-04-21T15:48:44.805Z,11.99
2019-04-21T15:51:15.742Z,11.46
2019-04-21T15:53:45.820Z,10.61
2019-04-21T15:56:20.662Z,9.80
2019-04-21T15:59:08.456Z,8.99
2019-04-21T16:01:46.492Z,8.34
2019-04-21T16:04:16.838Z,8.00
2019-04-21T16:06:46.053Z,7.60
2019-04-21T16:09:20.973Z,7.19
2019-04-21T16:11:46.650Z,6.78
2019-04-21T16:14:16.701Z,6.51
2019-04-21T16:16:47.420Z,6.49
2019-04-21T16:19:16.774Z,6.36
2019-04-21T16:21:46.525Z,6.25
2019-04-21T16:24:16.338Z,6.16
2019-04-21T16:26:46.838Z,5.85
2019-04-21T16:29:17.402Z,6.12
2019-04-21T16:31:47.026Z,6.04
2019-04-21T16:34:17.765Z,6.15
2019-04-21T16:36:47.661Z,6.06
2019-04-21T16:39:18.129Z,6.02
2019-04-21T16:41:47.309Z,6.02
2019-04-21T16:44:16.918Z,6.07
2019-04-21T16:46:47.431Z,5.82
2019-04-21T16:49:17.891Z,6.07
2019-04-21T16:51:50.018Z,6.20
2019-04-21T16:54:26.431Z,6.36
2019-04-21T16:57:33.561Z,6.49
2019-04-21T17:00:06.635Z,6.67
2019-04-21T17:02:36.705Z,6.85
2019-04-21T17:05:06.723Z,7.06
2019-04-21T17:07:36.778Z,7.41
2019-04-21T17:10:06.621Z,8.59
2019-04-21T17:12:37.399Z,9.85
2019-04-21T17:15:18.974Z,11.17
2019-04-21T17:18:00.416Z,12.22
2019-04-21T17:20:19.259Z,13.22
2019-04-21T17:22:41.752Z,13.98
2019-04-21T17:25:11.421Z,14.64
2019-04-21T17:27:40.950Z,15.18
2019-04-21T17:30:12.508Z,15.69
2019-04-21T17:32:46.989Z,16.09
2019-04-21T17:35:14.181Z,16.45
2019-04-21T17:37:43.574Z,16.86
2019-04-21T17:40:13.563Z,17.16
2019-04-21T17:42:49.278Z,17.53
2019-04-21T17:45:15.176Z,17.72
2019-04-21T17:47:53.769Z,17.96
2019-04-21T17:50:29.449Z,18.15
2019-04-21T17:53:08.745Z,18.37
2019-04-21T17:55:38.524Z,18.57
2019-04-21T17:58:21.955Z,18.64
2019-04-21T18:01:10.983Z,18.79
2019-04-21T18:03:40.717Z,18.92
2019-04-21T18:05:55.887Z,19.12
2019-04-21T18:08:30.595Z,19.12
2019-04-21T18:10:54.357Z,19.30
2019-04-21T18:13:19.212Z,19.61
2019-04-21T18:15:58.608Z,19.68
2019-04-21T18:18:18.627Z,19.77
2019-04-21T18:20:55.006Z,19.76
2019-04-21T18:23:52.871Z,19.78
2019-04-21T18:26:24.738Z,19.90
2019-04-21T18:28:46.480Z,20.05
2019-04-21T18:31:16.519Z,20.25
2019-04-21T18:34:12.765Z,20.29
2019-04-21T18:36:49.733Z,20.46
2019-04-21T18:39:39.250Z,20.57
2019-04-21T18:42:17.477Z,20.76
2019-04-21T18:45:28.467Z,20.89
2019-04-21T18:47:48.912Z,21.02
2019-04-21T18:50:24.126Z,21.18
2019-04-21T18:53:08.865Z,21.26
2019-04-21T18:55:36.050Z,21.44
2019-04-21T18:58:01.016Z,21.57
2019-04-21T19:00:34.445Z,21.75
2019-04-21T19:03:02.033Z,21.72
2019-04-21T19:05:32.287Z,21.82
2019-04-21T19:08:14.795Z,21.97
2019-04-21T19:10:50.639Z,22.18
2019-04-21T19:13:49.462Z,22.20
2019-04-21T19:16:11.072Z,22.39
2019-04-21T19:20:54.289Z,22.49
2019-04-21T19:23:33.825Z,22.70
2019-04-21T19:26:11.028Z,22.76
2019-04-21T19:28:29.020Z,22.98
2019-04-21T19:31:07.698Z,23.12
2019-04-21T19:33:25.429Z,23.21
2019-04-21T19:35:43.473Z,23.30
2019-04-21T19:38:16.207Z,23.37
2019-04-21T19:40:56.552Z,23.69
2019-04-21T19:43:36.977Z,23.64
2019-04-21T19:45:59.463Z,23.77
2019-04-21T19:48:36.786Z,23.84
2019-04-21T19:51:07.164Z,23.68
2019-04-21T19:53:29.871Z,23.90
2019-04-21T19:55:50.057Z,23.67
2019-04-21T19:58:26.375Z,23.89
2019-04-21T20:00:53.675Z,23.79
2019-04-21T20:03:21.783Z,23.75
2019-04-21T20:06:00.373Z,23.78
2019-04-21T20:08:36.733Z,23.81
2019-04-21T20:11:10.628Z,24.06
2019-04-21T20:13:53.142Z,24.11
2019-04-21T20:16:12.856Z,24.00
2019-04-21T20:18:34.886Z,24.08
2019-04-21T20:20:58.356Z,23.89
2019-04-21T20:23:31.938Z,23.81
2019-04-21T20:26:02.723Z,23.62
2019-04-21T20:28:44.396Z,23.64
2019-04-21T20:31:20.532Z,23.70
2019-04-21T20:33:52.611Z,23.53
2019-04-21T20:36:21.075Z,23.57
2019-04-21T20:38:42.128Z,23.54
2019-04-21T20:41:22.268Z,23.52
2019-04-21T20:43:55.652Z,23.55
2019-04-21T20:46:24.935Z,23.64
2019-04-21T20:48:51.260Z,23.53
2019-04-21T20:51:29.922Z,23.62
2019-04-21T20:53:53.742Z,23.70
2019-04-21T20:56:19.349Z,23.60
2019-04-21T20:58:58.122Z,23.67
2019-04-21T21:03:57.979Z,23.73
2019-04-21T21:06:26.064Z,23.86
2019-04-21T21:09:01.469Z,23.91
2019-04-21T21:11:29.353Z,24.04
2019-04-21T21:14:07.416Z,24.19
2019-04-21T21:16:42.693Z,24.10
2019-04-21T21:21:35.901Z,24.01
2019-04-21T21:24:10.155Z,24.37
2019-04-21T21:26:36.934Z,24.37
2019-04-21T21:29:02.964Z,24.59
2019-04-21T21:31:41.757Z,24.62
2019-04-21T21:34:16.772Z,24.89
2019-04-21T21:36:43.505Z,25.03
2019-04-21T21:39:15.507Z,25.01
2019-04-21T21:41:36.873Z,25.53
2019-04-21T21:44:05.798Z,25.53
2019-04-21T21:46:44.190Z,25.58
2019-04-21T21:49:06.310Z,25.00
2019-04-21T21:51:42.881Z,25.00
2019-04-21T21:54:04.799Z,24.92
2019-04-21T21:56:34.448Z,24.92
2019-04-21T21:59:11.764Z,25.19
2019-04-21T22:01:39.908Z,25.33
2019-04-21T22:04:14.552Z,25.16
2019-04-21T22:06:45.436Z,25.09
2019-04-21T22:09:12.531Z,25.29
2019-04-21T22:11:42.335Z,25.29
2019-04-21T22:14:22.311Z,25.46
2019-04-21T22:16:59.358Z,25.68
2019-04-21T22:19:33.035Z,25.46
2019-04-21T22:22:07.965Z,25.85
2019-04-21T22:24:33.478Z,25.76
2019-04-21T22:26:47.271Z,25.99
2019-04-21T22:29:16.643Z,26.08
2019-04-21T22:31:46.921Z,26.36
2019-04-21T22:34:21.820Z,26.30
2019-04-21T22:36:59.061Z,26.64
2019-04-21T22:39:37.540Z,26.74
2019-04-21T22:42:04.178Z,27.03
2019-04-21T22:44:22.708Z,26.66
2019-04-21T22:47:02.963Z,26.57
2019-04-21T22:49:23.816Z,26.33
2019-04-21T22:51:53.895Z,26.42
2019-04-21T22:54:31.478Z,26.46
2019-04-21T22:57:02.630Z,26.62
2019-04-21T22:59:28.124Z,26.52
2019-04-21T23:01:57.609Z,27.00
2019-04-21T23:04:35.664Z,27.12
2019-04-21T23:07:02.873Z,27.09
2019-04-21T23:09:29.122Z,27.36
2019-04-21T23:12:01.003Z,27.44
2019-04-21T23:14:32.872Z,27.67
2019-04-21T23:17:25.588Z,27.73
2019-04-21T23:19:44.895Z,27.80
2019-04-21T23:22:24.494Z,27.62
2019-04-21T23:24:51.592Z,27.86
2019-04-21T23:27:16.574Z,28.03
2019-04-21T23:30:09.974Z,28.19
2019-04-21T23:32:17.383Z,28.21
2019-04-21T23:34:40.301Z,28.10
2019-04-21T23:37:14.555Z,28.07
2019-04-21T23:39:41.459Z,28.07
2019-04-21T23:42:11.228Z,27.97
2019-04-21T23:44:47.020Z,28.26
2019-04-21T23:47:20.008Z,28.25
2019-04-21T23:49:50.976Z,28.46
2019-04-21T23:52:16.049Z,28.34
2019-04-21T23:54:45.264Z,28.31
2019-04-21T23:57:23.433Z,28.26
2019-04-21T23:59:51.332Z,28.37
